Time;durP1;ratioP1;P1;durP2;ratioP2;P2;SDS_P1;SDS_P2;PMS_P1;PMS_P2;Temp;Humidity;BMP_temperature;BMP_pressure;BME280_temperature;BME280_humidity;BME280_pressure;Samples;Min_cycle;Max_cycle;Signal;HPM_P1;HPM_P2
2022/07/29 00:02:05;;;;;;;;;;;;;;;18.09;55.47;101019.25;5000329;28;19975;-80
2022/07/29 00:04:30;;;;;;;;;;;;;;;18.07;55.52;101027.19;4985409;28;19936;-80
2022/07/29 00:06:55;;;;;;;;;;;;;;;18.09;56.37;101022.69;5004597;28;20008;-80
2022/07/29 00:09:21;;;;;;;;;;;;;;;18.06;56.74;101033.41;5007712;28;20044;-80
2022/07/29 00:11:46;;;;;;;;;;;;;;;18.06;57.21;101033.41;5002179;28;19961;-80
2022/07/29 00:14:12;;;;;;;;;;;;;;;18.06;56.79;101022.88;5002737;28;20327;-80
2022/07/29 00:16:37;;;;;;;;;;;;;;;18.05;56.82;101029.06;5010397;28;20348;-80
2022/07/29 00:19:02;;;;;;;;;;;;;;;18.06;57.41;101029.91;5009341;28;19926;-81
2022/07/29 00:21:28;;;;;;;;;;;;;;;18.07;57.22;101027.19;5001710;28;19926;-80
2022/07/29 00:23:53;;;;;;;;;;;;;;;18.08;57.11;101028.91;5002868;28;19922;-80
2022/07/29 00:26:19;;;;;;;;;;;;;;;18.06;56.59;101014.13;5005693;28;19932;-80
2022/07/29 00:28:44;;;;;;;;;;;;;;;18.08;57.04;101014.91;5008080;28;20391;-80
2022/07/29 00:31:09;;;;;;;;;;;;;;;18.12;57.05;101006.78;5006098;28;19921;-80
2022/07/29 00:33:34;;;;;;;;;;;;;;;18.07;57.38;101008.78;4990724;28;19922;-80
2022/07/29 00:36:00;;;;;;;;;;;;;;;18.05;56.66;101007.16;5011131;28;19921;-80
2022/07/29 00:38:25;;;;;;;;;;;;;;;18.05;56.15;101004.53;5009923;28;20016;-81
2022/07/29 00:40:50;;;;;;;;;;;;;;;18.02;56.91;101005.53;5009279;28;19928;-81
2022/07/29 00:43:16;;;;;;;;;;;;;;;18.03;56.88;100994.13;5011385;28;19922;-80
2022/07/29 00:45:42;;;;;;;;;;;;;;;18.02;56.90;100996.78;5007023;28;19926;-80
2022/07/29 00:48:08;;;;;;;;;;;;;;;18.02;55.82;100986.28;5006664;28;19972;-80
2022/07/29 00:50:34;;;;;;;;;;;;;;;18.04;56.35;100987.91;5004174;28;19929;-80
2022/07/29 00:53:00;;;;;;;;;;;;;;;18.03;56.70;100990.63;5003579;28;19964;-80
2022/07/29 00:55:26;;;;;;;;;;;;;;;17.99;56.68;100979.41;5007087;28;20020;-80
2022/07/29 00:57:52;;;;;;;;;;;;;;;17.98;56.26;100982.09;4990718;28;20016;-81
2022/07/29 01:00:19;;;;;;;;;;;;;;;18.02;55.24;100979.25;5006414;28;19967;-80
2022/07/29 01:02:48;;;;;;;;;;;;;;;18.01;55.58;100977.53;5001139;28;19925;-80
2022/07/29 01:05:14;;;;;;;;;;;;;;;18.03;55.59;100969.59;5002712;28;19925;-80
2022/07/29 01:07:39;;;;;;;;;;;;;;;18.03;55.78;100970.44;5005814;28;19925;-80
2022/07/29 01:10:06;;;;;;;;;;;;;;;18.00;56.09;100967.13;4992909;28;19975;-80
2022/07/29 01:12:33;;;;;;;;;;;;;;;17.96;55.48;100965.53;5003477;28;19925;-80
2022/07/29 01:14:59;;;;;;;;;;;;;;;17.96;56.00;100966.41;5007897;28;19913;-80
2022/07/29 01:17:43;;;;;;;;;;;;;;;17.99;56.16;100957.50;5011558;28;20372;-80
2022/07/29 01:20:21;;;;;;;;;;;;;;;17.97;56.82;100959.38;5003908;28;19968;-80
2022/07/29 01:22:53;;;;;;;;;;;;;;;17.97;56.69;100967.25;5008053;28;19928;-80
2022/07/29 01:25:36;;;;;;;;;;;;;;;18.01;56.31;100961.75;4990589;28;20316;-80
2022/07/29 01:28:21;;;;;;;;;;;;;;;17.97;56.54;100959.38;5004559;28;20008;-80
2022/07/29 01:30:49;;;;;;;;;;;;;;;17.96;56.89;100960.28;5002948;28;19928;-80
2022/07/29 01:34:02;;;;;;;;;;;;;;;17.95;57.56;100959.44;5006574;28;19943;-80
2022/07/29 01:36:06;;;;;;;;;;;;;;;17.98;57.01;100954.03;4995131;28;20021;-80
2022/07/29 01:38:32;;;;;;;;;;;;;;;17.99;56.91;100957.50;5007958;28;19929;-80
2022/07/29 01:41:04;;;;;;;;;;;;;;;17.97;57.26;100951.50;4990562;28;19934;-80
2022/07/29 01:43:37;;;;;;;;;;;;;;;17.94;57.68;100949.00;5009782;28;19921;-81
2022/07/29 01:46:05;;;;;;;;;;;;;;;17.95;57.18;100955.94;5006062;28;19926;-80
2022/07/29 01:48:38;;;;;;;;;;;;;;;17.93;57.57;100948.16;4976943;28;19933;-80
2022/07/29 01:51:27;;;;;;;;;;;;;;;17.88;57.34;100954.56;5009027;28;19917;-81
2022/07/29 01:54:01;;;;;;;;;;;;;;;17.87;57.73;100947.59;4987043;28;19975;-79
2022/07/29 01:56:30;;;;;;;;;;;;;;;17.84;58.08;100945.09;5001196;28;21250;-80
2022/07/29 01:58:56;;;;;;;;;;;;;;;17.82;57.30;100944.34;5003434;28;19980;-80
2022/07/29 02:01:23;;;;;;;;;;;;;;;17.83;56.92;100932.91;5006507;28;19996;-80
2022/07/29 02:03:50;;;;;;;;;;;;;;;17.82;57.55;100936.47;5002280;28;19921;-80
2022/07/29 02:06:18;;;;;;;;;;;;;;;17.82;57.72;100931.19;5004491;28;19926;-80
2022/07/29 02:08:45;;;;;;;;;;;;;;;17.78;57.89;100932.25;5000034;28;19925;-80
2022/07/29 02:11:11;;;;;;;;;;;;;;;17.76;57.89;100929.72;4985704;28;19961;-80
2022/07/29 02:13:37;;;;;;;;;;;;;;;17.75;57.89;100925.38;4985953;28;19965;-80
2022/07/29 02:16:04;;;;;;;;;;;;;;;17.75;58.01;100932.41;5004431;28;19921;-80
2022/07/29 02:18:30;;;;;;;;;;;;;;;17.67;57.68;100932.78;4984044;28;20005;-80
2022/07/29 02:20:56;;;;;;;;;;;;;;;17.71;57.86;100930.88;5013808;28;19960;-79
2022/07/29 02:23:23;;;;;;;;;;;;;;;17.63;57.66;100928.59;4984438;28;19968;-80
2022/07/29 02:25:49;;;;;;;;;;;;;;;17.60;57.83;100924.34;5008309;28;20438;-80
2022/07/29 02:28:16;;;;;;;;;;;;;;;17.59;57.56;100924.41;5004016;28;19922;-81
2022/07/29 02:30:42;;;;;;;;;;;;;;;17.56;57.71;100924.53;4988682;28;19922;-80
2022/07/29 02:33:08;;;;;;;;;;;;;;;17.54;58.21;100926.38;5002873;28;19920;-80
2022/07/29 02:35:34;;;;;;;;;;;;;;;17.53;58.03;100935.19;5006895;28;19928;-81
2022/07/29 02:40:43;;;;;;;;;;;;;;;17.51;58.21;100931.75;4989306;28;19996;-80
2022/07/29 02:43:10;;;;;;;;;;;;;;;17.48;58.63;100937.16;4988697;28;20661;-80
2022/07/29 02:45:35;;;;;;;;;;;;;;;17.48;58.38;100940.66;5002943;28;19929;-80
2022/07/29 02:48:04;;;;;;;;;;;;;;;17.47;58.27;100938.94;4999720;28;19918;-79
2022/07/29 02:50:33;;;;;;;;;;;;;;;17.50;59.04;100935.34;4986088;28;20297;-80
2022/07/29 02:53:03;;;;;;;;;;;;;;;17.50;59.03;100938.78;5000071;28;20036;-80
2022/07/29 02:55:42;;;;;;;;;;;;;;;17.53;58.95;100938.66;5004016;28;19922;-80
2022/07/29 02:58:13;;;;;;;;;;;;;;;17.52;58.73;100941.34;5004488;28;19959;-79
2022/07/29 03:00:40;;;;;;;;;;;;;;;17.48;58.43;100939.78;5000750;28;19949;-80
2022/07/29 03:03:08;;;;;;;;;;;;;;;17.50;58.70;100943.22;5004882;28;19968;-80
2022/07/29 03:05:35;;;;;;;;;;;;;;;17.51;59.18;100948.38;4983129;28;19988;-80
2022/07/29 03:08:03;;;;;;;;;;;;;;;17.48;58.55;100945.91;4984207;28;19922;-80
2022/07/29 03:10:29;;;;;;;;;;;;;;;17.50;58.38;100957.19;4999730;28;20384;-80
2022/07/29 03:12:55;;;;;;;;;;;;;;;17.60;58.04;100948.00;5004883;28;20017;-79
2022/07/29 03:15:21;;;;;;;;;;;;;;;17.50;58.09;100946.66;5003683;28;19925;-80
2022/07/29 03:17:47;;;;;;;;;;;;;;;17.61;57.68;100951.47;4999083;28;20438;-80
2022/07/29 03:20:12;;;;;;;;;;;;;;;17.58;58.32;100951.59;4980930;28;19925;-80
2022/07/29 03:22:43;;;;;;;;;;;;;;;17.54;59.07;100956.13;4999892;28;19929;-80
2022/07/29 03:25:09;;;;;;;;;;;;;;;17.55;58.97;100949.94;5003098;28;19988;-80
2022/07/29 03:27:34;;;;;;;;;;;;;;;17.59;58.90;100955.91;5001999;28;19921;-80
2022/07/29 03:29:59;;;;;;;;;;;;;;;17.55;58.91;100943.84;4984019;28;20327;-80
2022/07/29 03:32:24;;;;;;;;;;;;;;;17.56;57.46;100948.19;4998577;28;19965;-80
2022/07/29 03:34:50;;;;;;;;;;;;;;;17.58;57.61;100956.84;4968505;28;19925;-80
2022/07/29 03:37:15;;;;;;;;;;;;;;;17.59;56.18;100955.91;4998832;28;19921;-80
2022/07/29 03:39:41;;;;;;;;;;;;;;;17.58;56.98;100956.84;4998322;28;19929;-80
2022/07/29 03:42:08;;;;;;;;;;;;;;;17.59;56.55;100954.16;5001389;28;20384;-80
2022/07/29 03:44:34;;;;;;;;;;;;;;;17.55;57.49;100949.09;4982355;28;20017;-80
2022/07/29 03:47:01;;;;;;;;;;;;;;;17.51;57.51;100944.91;5002619;28;19922;-80
2022/07/29 03:49:27;;;;;;;;;;;;;;;17.56;57.26;100951.63;5003702;28;20012;-80
2022/07/29 03:51:53;;;;;;;;;;;;;;;17.57;57.05;100952.50;5005637;28;20016;-80
2022/07/29 03:54:18;;;;;;;;;;;;;;;17.60;57.31;100947.13;5006586;28;19925;-80
2022/07/29 03:56:48;;;;;;;;;;;;;;;17.54;58.02;100952.63;5000751;28;19929;-80
2022/07/29 03:59:14;;;;;;;;;;;;;;;17.54;58.44;100952.63;4999460;28;20407;-80
2022/07/29 04:01:41;;;;;;;;;;;;;;;17.51;58.55;100945.75;5004470;28;20381;-80
2022/07/29 04:04:06;;;;;;;;;;;;;;;17.44;58.10;100943.50;4992833;28;19929;-80
2022/07/29 04:06:41;;;;;;;;;;;;;;;17.43;58.49;100950.53;4986077;28;19936;-80
2022/07/29 04:09:07;;;;;;;;;;;;;;;17.37;59.08;100955.19;5005615;28;19922;-80
2022/07/29 04:11:32;;;;;;;;;;;;;;;17.38;58.99;100949.88;5004129;28;20478;-80
2022/07/29 04:13:58;;;;;;;;;;;;;;;17.42;59.18;100953.19;5002751;28;19937;-80
2022/07/29 04:16:23;;;;;;;;;;;;;;;17.45;58.90;100950.44;5003469;28;19929;-79
2022/07/29 04:18:48;;;;;;;;;;;;;;;17.44;58.47;100954.00;5003333;28;19968;-80
2022/07/29 04:21:14;;;;;;;;;;;;;;;17.49;58.92;100965.13;4987233;28;20861;-80
2022/07/29 04:23:40;;;;;;;;;;;;;;;17.43;59.29;100971.53;5009671;28;19975;-80
2022/07/29 04:26:09;;;;;;;;;;;;;;;17.40;59.45;100971.66;5001184;28;19929;-80
2022/07/29 04:28:34;;;;;;;;;;;;;;;17.40;59.67;100969.03;5010286;28;19940;-80
2022/07/29 04:31:00;;;;;;;;;;;;;;;17.40;59.87;100971.66;5003289;28;19944;-80
2022/07/29 04:33:25;;;;;;;;;;;;;;;17.41;60.33;100977.78;5008476;28;19918;-80
2022/07/29 04:35:51;;;;;;;;;;;;;;;17.44;60.03;100982.91;5010178;28;20375;-80
2022/07/29 04:38:16;;;;;;;;;;;;;;;17.42;60.29;100987.34;4978920;28;19928;-80
2022/07/29 04:40:41;;;;;;;;;;;;;;;17.42;60.70;100976.84;5003862;28;20056;-80
2022/07/29 04:43:07;;;;;;;;;;;;;;;17.46;59.68;100978.41;5004544;28;19921;-80
2022/07/29 04:45:32;;;;;;;;;;;;;;;17.46;57.77;100974.03;5016186;28;20404;-80
2022/07/29 04:47:57;;;;;;;;;;;;;;;17.49;58.82;100980.91;5006141;28;19914;-80
2022/07/29 04:50:23;;;;;;;;;;;;;;;17.54;58.59;100989.41;5011971;28;19928;-80
2022/07/29 04:52:48;;;;;;;;;;;;;;;17.57;57.93;100984.00;4977616;28;20400;-80
2022/07/29 04:55:13;;;;;;;;;;;;;;;17.57;58.01;100994.53;5007020;28;20380;-80
2022/07/29 04:57:39;;;;;;;;;;;;;;;17.53;59.12;100999.06;5006084;28;19961;-80
2022/07/29 05:00:05;;;;;;;;;;;;;;;17.55;59.12;101001.63;4990940;28;19971;-80
2022/07/29 05:02:31;;;;;;;;;;;;;;;17.58;59.02;100994.47;5009278;28;20550;-80
2022/07/29 05:04:56;;;;;;;;;;;;;;;17.58;59.33;100997.09;5004630;28;19933;-80
2022/07/29 05:07:21;;;;;;;;;;;;;;;17.58;59.02;100994.47;4990894;28;19929;-80
2022/07/29 05:09:47;;;;;;;;;;;;;;;17.62;59.02;100999.63;5006638;28;20439;-79
2022/07/29 05:12:12;;;;;;;;;;;;;;;17.66;58.88;100998.53;5013560;28;19931;-80
2022/07/29 05:14:37;;;;;;;;;;;;;;;17.67;59.27;101000.25;5010606;28;20293;-80
2022/07/29 05:17:03;;;;;;;;;;;;;;;17.69;57.08;101003.63;4983106;28;19930;-80
2022/07/29 05:19:28;;;;;;;;;;;;;;;17.70;58.17;101021.13;4988411;28;19922;-80
2022/07/29 05:21:53;;;;;;;;;;;;;;;17.76;57.66;101005.94;5008788;28;19921;-80
2022/07/29 05:24:19;;;;;;;;;;;;;;;17.77;57.82;101017.28;5003996;28;19918;-80
2022/07/29 05:26:44;;;;;;;;;;;;;;;17.77;57.60;101020.75;5009255;28;19924;-80
2022/07/29 05:29:10;;;;;;;;;;;;;;;17.77;55.73;101014.66;5005112;28;19921;-81
2022/07/29 05:31:35;;;;;;;;;;;;;;;17.83;55.43;101017.84;5016404;28;19917;-80
2022/07/29 05:34:00;;;;;;;;;;;;;;;17.80;54.75;101019.78;5004770;28;19925;-81
2022/07/29 05:36:25;;;;;;;;;;;;;;;17.87;54.79;101021.19;5001529;28;19933;-81
2022/07/29 05:38:51;;;;;;;;;;;;;;;17.91;53.09;101025.38;5003627;28;19914;-80
2022/07/29 05:41:17;;;;;;;;;;;;;;;17.89;53.60;101029.84;4996123;28;20572;-81
2022/07/29 05:43:42;;;;;;;;;;;;;;;17.95;52.25;101038.28;5016207;28;19973;-81
2022/07/29 05:46:08;;;;;;;;;;;;;;;17.99;51.87;101046.88;5006923;28;20056;-81
2022/07/29 05:48:33;;;;;;;;;;;;;;;17.95;51.27;101045.31;5009221;28;19979;-81
2022/07/29 05:50:58;;;;;;;;;;;;;;;17.94;52.16;101057.63;5011287;28;19929;-81
2022/07/29 05:53:24;;;;;;;;;;;;;;;17.91;52.51;101060.41;5004732;28;19918;-80
2022/07/29 05:55:50;;;;;;;;;;;;;;;17.91;51.64;101065.66;4984620;28;19925;-81
2022/07/29 05:58:15;;;;;;;;;;;;;;;17.99;51.63;101060.88;5004488;28;19999;-81
2022/07/29 06:00:40;;;;;;;;;;;;;;;18.04;51.44;101066.78;4970467;28;20012;-80
2022/07/29 06:03:06;;;;;;;;;;;;;;;18.04;53.04;101071.16;5006173;28;19921;-81
2022/07/29 06:05:31;;;;;;;;;;;;;;;18.08;54.21;101070.13;5008989;28;20087;-81
2022/07/29 06:07:56;;;;;;;;;;;;;;;18.12;54.86;101079.56;4989892;28;19949;-82
2022/07/29 06:10:21;;;;;;;;;;;;;;;18.13;54.87;101087.38;5007822;28;19925;-82
2022/07/29 06:12:47;;;;;;;;;;;;;;;18.12;54.61;101092.72;5002633;28;19984;-82
2022/07/29 06:15:12;;;;;;;;;;;;;;;18.15;54.72;101084.69;5004753;28;19922;-82
2022/07/29 06:17:37;;;;;;;;;;;;;;;18.15;53.24;101082.88;5007992;28;20348;-81
2022/07/29 06:20:03;;;;;;;;;;;;;;;18.15;53.22;101087.31;5010786;28;19929;-82
2022/07/29 06:22:29;;;;;;;;;;;;;;;18.17;52.89;101077.56;5008942;28;19917;-82
2022/07/29 06:24:54;;;;;;;;;;;;;;;18.20;53.22;101081.81;4999678;28;19968;-82
2022/07/29 06:27:19;;;;;;;;;;;;;;;18.06;53.23;101083.34;4990980;28;19926;-82
2022/07/29 06:29:45;;;;;;;;;;;;;;;18.17;52.51;101077.56;5007155;28;19917;-82
2022/07/29 06:32:10;;;;;;;;;;;;;;;18.21;52.43;101078.28;5009100;28;20415;-82
2022/07/29 06:34:35;;;;;;;;;;;;;;;18.16;52.84;101084.59;5005561;28;20635;-81
2022/07/29 06:37:05;;;;;;;;;;;;;;;18.26;52.54;101078.91;4988347;28;19921;-82
2022/07/29 06:39:31;;;;;;;;;;;;;;;18.25;52.90;101075.41;5001448;28;19940;-82
2022/07/29 06:41:56;;;;;;;;;;;;;;;18.26;52.42;101071.88;5010008;28;19913;-81
2022/07/29 06:44:21;;;;;;;;;;;;;;;18.28;52.71;101075.28;4991553;28;20016;-82
2022/07/29 06:46:48;;;;;;;;;;;;;;;18.31;53.76;101071.63;4994263;28;19927;-81
2022/07/29 06:49:14;;;;;;;;;;;;;;;18.35;52.67;101076.69;5010915;28;19921;-82
2022/07/29 06:51:39;;;;;;;;;;;;;;;18.39;52.64;101080.84;4993052;28;20395;-82
2022/07/29 06:54:05;;;;;;;;;;;;;;;18.37;51.67;101077.47;5004860;28;19943;-82
2022/07/29 06:56:31;;;;;;;;;;;;;;;18.39;51.61;101070.34;4998775;28;20372;-81
2022/07/29 06:58:57;;;;;;;;;;;;;;;18.40;51.23;101072.06;5001895;28;19922;-82
2022/07/29 07:01:22;;;;;;;;;;;;;;;18.40;50.52;101061.53;5007628;28;19976;-82
2022/07/29 07:03:47;;;;;;;;;;;;;;;18.42;51.15;101070.19;5005108;28;19953;-81
2022/07/29 07:06:13;;;;;;;;;;;;;;;18.44;50.10;101067.50;5003519;28;20023;-81
2022/07/29 07:08:38;;;;;;;;;;;;;;;18.46;49.97;101060.41;5009995;28;20291;-81
2022/07/29 07:11:03;;;;;;;;;;;;;;;18.45;50.55;101056.06;4982909;28;19922;-82
2022/07/29 07:13:33;;;;;;;;;;;;;;;18.49;51.26;101066.38;5003824;28;19928;-81
2022/07/29 07:15:59;;;;;;;;;;;;;;;18.51;51.35;101068.94;5003458;28;20328;-82
2022/07/29 07:18:24;;;;;;;;;;;;;;;18.49;50.88;101066.38;5005116;28;20012;-82
2022/07/29 07:20:49;;;;;;;;;;;;;;;18.52;49.88;101065.38;4994249;28;19929;-81
2022/07/29 07:23:15;;;;;;;;;;;;;;;18.49;50.69;101074.28;4999844;28;19925;-82
2022/07/29 07:25:40;;;;;;;;;;;;;;;18.50;50.55;101070.72;5003278;28;19980;-82
2022/07/29 07:28:06;;;;;;;;;;;;;;;18.49;50.25;101081.31;5000116;28;20003;-82
2022/07/29 07:30:31;;;;;;;;;;;;;;;18.48;50.79;101083.06;5000968;28;19929;-82
2022/07/29 07:32:56;;;;;;;;;;;;;;;18.47;50.04;101086.66;4989409;28;19921;-82
2022/07/29 07:35:22;;;;;;;;;;;;;;;18.44;50.40;101083.28;4969689;28;20300;-81
2022/07/29 07:37:47;;;;;;;;;;;;;;;18.49;50.23;101084.78;5000475;28;19932;-82
2022/07/29 07:40:12;;;;;;;;;;;;;;;18.45;50.12;101079.75;5006996;28;19985;-82
2022/07/29 07:42:41;;;;;;;;;;;;;;;18.46;50.67;101074.41;5000908;28;19922;-82
2022/07/29 07:45:08;;;;;;;;;;;;;;;18.37;52.68;101080.09;4983484;28;19936;-81
2022/07/29 07:47:34;;;;;;;;;;;;;;;18.44;53.16;101075.38;4999578;28;20315;-81
2022/07/29 07:50:00;;;;;;;;;;;;;;;18.47;54.25;101084.03;5003164;28;19921;-81
2022/07/29 07:52:53;;;;;;;;;;;;;;;18.46;53.92;101082.31;5067470;27;19994;-81
2022/07/29 07:55:18;;;;;;;;;;;;;;;18.46;54.78;101078.81;5043318;28;19928;-81
2022/07/29 07:57:44;;;;;;;;;;;;;;;18.50;54.85;101083.03;5023648;28;19929;-81
2022/07/29 08:00:10;;;;;;;;;;;;;;;18.43;55.50;101081.56;5022761;28;20417;-81
2022/07/29 08:02:35;;;;;;;;;;;;;;;18.50;55.28;101076.00;5022084;28;20416;-81
2022/07/29 08:05:01;;;;;;;;;;;;;;;18.56;54.86;101064.31;5022676;28;19945;-82
2022/07/29 08:07:26;;;;;;;;;;;;;;;18.54;54.76;101067.00;5026291;28;19983;-82
2022/07/29 08:09:51;;;;;;;;;;;;;;;18.58;54.83;101065.94;5022074;28;19925;-82
2022/07/29 08:12:16;;;;;;;;;;;;;;;18.64;56.04;101068.25;5025766;28;20461;-82
2022/07/29 08:14:42;;;;;;;;;;;;;;;18.64;55.29;101070.03;5031086;28;20012;-81
2022/07/29 08:17:07;;;;;;;;;;;;;;;18.63;54.98;101078.84;5026916;28;19935;-82
2022/07/29 08:19:32;;;;;;;;;;;;;;;18.65;53.80;101075.22;5026214;28;20016;-82
2022/07/29 08:21:58;;;;;;;;;;;;;;;18.70;54.63;101078.47;5022706;28;20016;-82
2022/07/29 08:27:07;;;;;;;;;;;;;;;18.70;55.13;101075.84;5023402;28;20302;-82
2022/07/29 08:29:32;;;;;;;;;;;;;;;18.77;55.12;101067.66;5023234;28;19925;-82
2022/07/29 08:31:57;;;;;;;;;;;;;;;18.78;54.38;101078.09;5027759;28;20426;-82
2022/07/29 08:34:23;;;;;;;;;;;;;;;18.78;54.12;101074.63;5023453;28;20003;-82
2022/07/29 08:36:48;;;;;;;;;;;;;;;18.73;54.21;101069.56;5023222;28;20003;-82
2022/07/29 08:39:13;;;;;;;;;;;;;;;18.70;54.89;101070.59;5021161;28;19929;-82
2022/07/29 08:41:39;;;;;;;;;;;;;;;18.79;54.67;101073.69;5021710;28;19993;-82
2022/07/29 08:44:04;;;;;;;;;;;;;;;18.77;54.89;101072.91;5019617;28;19922;-82
2022/07/29 08:46:30;;;;;;;;;;;;;;;18.77;54.52;101076.41;5026935;28;19921;-82
2022/07/29 08:48:55;;;;;;;;;;;;;;;18.77;55.01;101067.66;5036451;28;19925;-82
2022/07/29 08:51:21;;;;;;;;;;;;;;;18.80;54.42;101067.50;5019728;28;19979;-81
2022/07/29 08:53:48;;;;;;;;;;;;;;;18.85;54.67;101065.47;5023090;28;19971;-80
2022/07/29 08:56:14;;;;;;;;;;;;;;;18.81;56.03;101070.03;5022579;28;19988;-80
2022/07/29 08:58:41;;;;;;;;;;;;;;;18.83;55.86;101073.47;5023956;28;19976;-81
2022/07/29 09:01:10;;;;;;;;;;;;;;;18.84;56.63;101080.41;5023156;28;19922;-81
2022/07/29 09:03:36;;;;;;;;;;;;;;;18.80;57.59;101072.75;5014331;28;20000;-81
2022/07/29 09:06:03;;;;;;;;;;;;;;;18.84;56.31;101063.78;5006243;28;19918;-82
2022/07/29 09:08:28;;;;;;;;;;;;;;;18.84;56.43;101071.69;5041786;28;20004;-81
2022/07/29 09:10:55;;;;;;;;;;;;;;;18.81;56.39;101064.78;5010543;28;20540;-81
2022/07/29 09:13:21;;;;;;;;;;;;;;;18.86;56.08;101067.19;5008455;28;19954;-81
2022/07/29 09:15:46;;;;;;;;;;;;;;;18.89;56.10;101060.00;5006379;28;19921;-82
2022/07/29 09:18:11;;;;;;;;;;;;;;;18.93;56.35;101056.25;5006781;28;20325;-81
2022/07/29 09:23:21;;;;;;;;;;;;;;;19.07;56.43;101063.47;5009460;28;19928;-82
2022/07/29 09:25:47;;;;;;;;;;;;;;;19.05;56.82;101065.31;5008212;28;19928;-82
2022/07/29 09:28:21;;;;;;;;;;;;;;;19.12;56.27;101069.34;5011770;28;19921;-82
2022/07/29 09:30:53;;;;;;;;;;;;;;;19.10;55.64;101069.44;5010761;28;20171;-81
2022/07/29 09:33:19;;;;;;;;;;;;;;;19.10;55.94;101060.69;5013658;28;20008;-81
2022/07/29 09:35:44;;;;;;;;;;;;;;;19.05;55.79;101058.25;5009613;28;20004;-82
2022/07/29 09:38:10;;;;;;;;;;;;;;;19.08;55.84;101063.38;5010679;28;20625;-82
2022/07/29 09:40:35;;;;;;;;;;;;;;;19.12;55.92;101058.81;5007872;28;19944;-82
2022/07/29 09:43:11;;;;;;;;;;;;;;;19.08;54.81;101063.38;5010699;28;20397;-81
2022/07/29 09:45:37;;;;;;;;;;;;;;;19.05;54.68;101052.13;5006526;28;19925;-81
2022/07/29 09:48:17;;;;;;;;;;;;;;;19.11;54.54;101057.09;5008337;28;20429;-82
2022/07/29 09:50:43;;;;;;;;;;;;;;;19.15;54.74;101059.50;5032667;28;20015;-81
2022/07/29 09:53:09;;;;;;;;;;;;;;;19.19;54.65;101060.19;5017160;28;19928;-81
2022/07/29 09:55:48;;;;;;;;;;;;;;;19.19;54.26;101061.03;5014449;28;19927;-81
2022/07/29 09:58:17;;;;;;;;;;;;;;;19.32;53.87;101056.00;5008961;28;19930;-82
2022/07/29 10:00:43;;;;;;;;;;;;;;;19.33;53.80;101057.72;5009862;28;19921;-84
2022/07/29 10:03:08;;;;;;;;;;;;;;;19.34;54.12;101054.16;5009856;28;19921;-82
2022/07/29 10:05:34;;;;;;;;;;;;;;;19.32;54.00;101056.00;5008817;28;20020;-82
2022/07/29 10:07:59;;;;;;;;;;;;;;;19.34;53.43;101056.81;5011140;28;19968;-82
2022/07/29 10:10:30;;;;;;;;;;;;;;;19.39;53.57;101051.28;5007966;28;19921;-82
2022/07/29 10:12:57;;;;;;;;;;;;;;;19.41;54.99;101050.25;5000590;28;19937;-82
2022/07/29 10:15:23;;;;;;;;;;;;;;;19.62;52.24;101046.47;4992974;28;19937;-82
2022/07/29 10:17:50;;;;;;;;;;;;;;;19.58;51.82;101049.38;5001329;28;19924;-82
2022/07/29 10:20:15;;;;;;;;;;;;;;;19.61;52.35;101046.56;5012864;28;19957;-82
2022/07/29 10:22:41;;;;;;;;;;;;;;;19.51;52.62;101040.94;5011551;28;20532;-82
2022/07/29 10:25:07;;;;;;;;;;;;;;;19.45;53.54;101049.19;5046484;28;19926;-82
2022/07/29 10:27:32;;;;;;;;;;;;;;;19.49;53.38;101040.16;5008448;28;19929;-82
2022/07/29 10:29:57;;;;;;;;;;;;;;;19.69;51.19;101041.75;5011188;28;20345;-83
2022/07/29 10:32:34;;;;;;;;;;;;;;;19.54;51.71;101043.41;5010705;28;19925;-83
2022/07/29 10:35:00;;;;;;;;;;;;;;;19.49;51.92;101044.59;5008126;28;19983;-82
2022/07/29 10:37:25;;;;;;;;;;;;;;;19.86;50.04;101044.28;5007892;28;19926;-82
2022/07/29 10:41:26;;;;;;;;;;;;;;;19.82;50.46;101041.94;5009892;28;19925;-83
2022/07/29 10:42:55;;;;;;;;;;;;;;;19.86;49.47;101036.38;5010093;28;19921;-82
2022/07/29 10:45:21;;;;;;;;;;;;;;;19.91;49.01;101034.34;5041882;28;19965;-82
2022/07/29 10:47:46;;;;;;;;;;;;;;;20.02;49.09;101036.38;5025877;28;19957;-83
2022/07/29 10:50:12;;;;;;;;;;;;;;;20.10;50.31;101037.69;5031250;28;20421;-83
2022/07/29 10:52:49;;;;;;;;;;;;;;;20.06;51.16;101044.03;5026633;28;19925;-83
2022/07/29 10:55:36;;;;;;;;;;;;;;;20.15;50.81;101038.28;5018775;28;19926;-83
2022/07/29 10:58:15;;;;;;;;;;;;;;;20.15;51.15;101040.91;5026171;28;20631;-83
2022/07/29 11:00:40;;;;;;;;;;;;;;;20.17;51.98;101041.66;5025713;28;19928;-82
2022/07/29 11:03:05;;;;;;;;;;;;;;;20.11;51.39;101039.41;5028868;28;19917;-83
2022/07/29 11:05:50;;;;;;;;;;;;;;;20.27;50.38;101036.72;5045101;28;19929;-83
2022/07/29 11:08:18;;;;;;;;;;;;;;;20.26;49.19;101027.13;5011143;28;19929;-83
2022/07/29 11:10:44;;;;;;;;;;;;;;;20.05;50.54;101042.34;5012396;28;19925;-82
2022/07/29 11:13:09;;;;;;;;;;;;;;;20.05;48.25;101031.81;5010464;28;19917;-82
2022/07/29 11:16:07;;;;;;;;;;;;;;;20.08;47.88;101029.03;5032457;28;19961;-82
2022/07/29 11:18:33;;;;;;;;;;;;;;;20.19;47.71;101031.03;5000414;28;19964;-82
2022/07/29 11:20:59;;;;;;;;;;;;;;;20.22;47.49;101026.44;5009962;28;19945;-83
2022/07/29 11:23:32;;;;;;;;;;;;;;;20.22;46.66;101034.38;5010131;28;19928;-83
2022/07/29 11:26:09;;;;;;;;;;;;;;;20.12;47.19;101032.31;5005688;28;20274;-82
2022/07/29 11:28:39;;;;;;;;;;;;;;;20.07;47.90;101035.19;5009188;28;19944;-82
2022/07/29 11:31:07;;;;;;;;;;;;;;;20.26;46.08;101025.31;5010886;28;19929;-83
2022/07/29 11:33:33;;;;;;;;;;;;;;;20.23;45.78;101022.03;5032544;28;19972;-82
2022/07/29 11:36:25;;;;;;;;;;;;;;;20.21;45.66;101023.88;5009296;28;19944;-82
2022/07/29 11:38:50;;;;;;;;;;;;;;;20.13;45.98;101024.34;5029518;28;19921;-83
2022/07/29 11:41:24;;;;;;;;;;;;;;;20.19;46.90;101024.00;5063310;28;19924;-83
2022/07/29 11:43:54;;;;;;;;;;;;;;;20.10;47.65;101029.78;5042474;28;19999;-83
2022/07/29 11:46:55;;;;;;;;;;;;;;;20.22;47.48;101020.31;5022442;28;19943;-83
2022/07/29 11:49:22;;;;;;;;;;;;;;;20.28;46.41;101026.09;4999813;28;19932;-82
2022/07/29 11:52:05;;;;;;;;;;;;;;;20.24;46.85;101021.06;5018928;28;20720;-82
2022/07/29 11:54:31;;;;;;;;;;;;;;;20.14;47.22;101023.41;5060786;28;19932;-83
2022/07/29 11:56:58;;;;;;;;;;;;;;;20.28;46.41;101028.75;5026788;28;19980;-83
2022/07/29 11:59:23;;;;;;;;;;;;;;;20.19;47.32;101028.41;5041368;28;19918;-82
2022/07/29 12:01:59;;;;;;;;;;;;;;;20.23;46.39;101019.41;5028354;28;19933;-83
2022/07/29 12:04:26;;;;;;;;;;;;;;;20.42;46.70;101027.94;5030543;28;19924;-83
2022/07/29 12:06:52;;;;;;;;;;;;;;;20.18;47.21;101024.91;5024569;28;19925;-82
2022/07/29 12:09:18;;;;;;;;;;;;;;;20.02;48.06;101028.47;5057296;28;19925;-83
2022/07/29 12:11:44;;;;;;;;;;;;;;;20.18;47.52;101027.56;5027064;28;20016;-82
2022/07/29 12:14:24;;;;;;;;;;;;;;;20.33;46.89;101028.47;5026895;28;19921;-81
2022/07/29 12:16:49;;;;;;;;;;;;;;;20.24;47.38;101029.00;5009069;28;19921;-82
2022/07/29 12:19:14;;;;;;;;;;;;;;;20.41;46.25;101028.91;5009048;28;19972;-82
2022/07/29 12:21:44;;;;;;;;;;;;;;;20.51;46.08;101031.84;5010593;28;20329;-82
2022/07/29 12:24:09;;;;;;;;;;;;;;;20.44;46.82;101031.31;5007403;28;19924;-82
2022/07/29 12:26:34;;;;;;;;;;;;;;;20.66;45.87;101023.88;5036138;28;19964;-82
2022/07/29 12:29:00;;;;;;;;;;;;;;;20.64;45.95;101023.13;5014990;28;19917;-82
2022/07/29 12:31:25;;;;;;;;;;;;;;;20.85;45.32;101027.19;5001046;28;19936;-82
2022/07/29 12:33:53;;;;;;;;;;;;;;;20.85;45.25;101015.75;5005252;28;20498;-82
2022/07/29 12:36:19;;;;;;;;;;;;;;;20.74;45.93;101021.63;5007070;28;19921;-82
2022/07/29 12:38:45;;;;;;;;;;;;;;;20.69;46.54;101022.84;5008687;28;20275;-82
2022/07/29 12:41:10;;;;;;;;;;;;;;;20.91;45.72;101018.03;5016232;28;19921;-82
2022/07/29 12:43:36;;;;;;;;;;;;;;;20.70;46.27;101021.91;5021498;28;19960;-82
2022/07/29 12:46:14;;;;;;;;;;;;;;;20.86;45.91;101022.72;5011657;28;20366;-82